Ride Results

Rockybar (08-06-2019)
Ride distance: 80.0 km

Outcomes - Rockybar (08-06-2019)
Division No. of Entries Retired / DNE Completed Withdrawn Ineligible V/O Percentage Completed
HW 8 - 6 - - 2 75.00%
MW 10 - 7 1 - 2 70.00%
LW 12 - 11 - - 1 91.67%
JN 6 - 6 - - - 100.00%
Totals 36 - 30 1 - 5 83.33%
Results - Rockybar (08-06-2019)
No. Rider Horse Place Time Leg Speeds Total
Km/Hr
H/R bpm
Heavyweight
216 Olaf Lochtenberg Matta Mia Dayimi 1 (BC) 5:56:00 14.1, 12.9 13.48 31, 46, 45 (Avg:45)
205 Michael Chapman Shanelli-Park Budahl 2 6:09:00 13.1, 12.8 13.01 36, 43, 48 (Avg:45)
247 Mark Nimon Abbeywood Zsarina 3 6:15:00 13.1, 12.4 12.80 29, 40, 40 (Avg:40)
223 Peter Field Rkayn Xuberant 4 6:30:00 13.0, 11.6 12.31 38, 51, 44 (Avg:47)
211 Greg Garred Shannonwood Hotlips 5 6:44:00 12.8, 11.0 11.88 30, 44, 45 (Avg:44)
210 Peter Spottswood Glenewan Chance 6 7:23:00 11.1, 10.5 10.84 30, 42, 42 (Avg:42)
201 Ced Fry Markir's Pride and Heritage Lame L2 0:00:00 13.1, 11.1 - 33, 40, 47 (Avg:43)
249 Matthew Gadsby Abbeywood Cochise Heart Rate L2 0:00:00 13.1, 12.4 - 32, 54, 90 (Avg:72)
Middleweight
243 Virginia Barber Warregal 1 (BC) 4:38:05 18.1, 16.4 17.26 33, 44, 53 (Avg:48)
213 Lisa Burgess Agape Sterling's Jo-El 2 5:16:00 17.3, 13.4 15.19 36, 45, 49 (Avg:47)
214 Wade Burgess Cameo Kingfisher 2 5:16:00 17.3, 13.4 15.19 30, 43, 47 (Avg:45)
220 Linda Lochtenberg Matta Mia Kassanova 4 5:56:10 14.1, 12.8 13.48 40, 52, 55 (Avg:53)
202 Vicki Harberger Bremervale Kingsman 5 6:39:00 13.1, 11.1 12.03 37, 53, 53 (Avg:53)
208 Ken Moir Drumlin Jaxson 6 7:33:00 10.9, 10.3 10.60 36, 44, 48 (Avg:46)
209 Alex Moir Picnic Park Onyx 6 7:33:00 10.9, 10.3 10.60 36, 46, 51 (Avg:48)
203 Susie Reed Follydown Bint Ajouz Lame L2 0:00:00 15.3, 12.8 - 34, 55, 55 (Avg:55)
221 Kimberly Cates Larntainey Silver Treasure Lame L1 0:00:00 13.1 - 34, 44 (Avg:44)
224 Samantha Yates Splendacrest Zafire W/D after vetting L1 0:00:00 - - 30, 35 (Avg:35)
Lightweight
204 Shelley Chapman Cameo Felspar 1 (BC) 4:38:10 18.1, 16.4 17.26 35, 48, 50 (Avg:49)
207 Emilie Jensen Monster Energy 2 5:37:00 16.9, 12.2 14.24 34, 53, 54 (Avg:53)
219 Alexandra Toft Roger That te 3 5:43:30 14.6, 13.3 13.97 33, 45, 50 (Avg:47)
222 Solstice Pecile Tora Sardeeka 4 5:53:00 13.1, 14.0 13.60 32, 35, 46 (Avg:40)
206 Maeve Paten Box Hill Nitro 5 6:09:05 13.1, 12.8 13.01 38, 40, 47 (Avg:43)
227 Essy Mountford Sbara Magnum 6 6:10:00 13.1, 12.7 12.97 34, 42, 50 (Avg:46)
248 Mindy Davies Abbeywood Bright Spark 7 6:15:00 13.1, 12.4 12.80 40, 42, 40 (Avg:41)
212 Finn Mansbridge Shannonwood Isra 8 6:44:00 12.8, 11.0 11.88 35, 42, 53 (Avg:47)
229 Jorja McInnes Willow Valley Electric Comet 9 7:23:00 11.1, 10.5 10.84 42, 41, 42 (Avg:41)
245 Shelby Moucha Cameo Persiaa 9 7:23:00 11.1, 10.5 10.84 40, 44, 47 (Avg:45)
244 Amanda Powell Cameo Cranberry Moon 9 7:23:00 11.1, 10.5 10.84 29, 42, 43 (Avg:42)
246 Madison McPhail Masree AP Lame L2 0:00:00 11.1, 10.5 - 33, 46, 48 (Avg:47)
Junior
242 Georgie Barber Concerto 1 (BC) 4:38:00 18.1, 16.4 17.27 40, 42, 41 (Avg:41)
226 Adi Imray Follydown Gai Emerald 2 5:16:10 16.4, 14.1 15.18 31, 44, 50 (Avg:47)
215 Charlize Renner Edenfels Crystal Kaz 3 5:43:00 15.3, 12.8 13.99 36, 46, 49 (Avg:47)
217 Tahlea Lochtenberg Henley Farm Nadif 4 5:56:05 14.1, 12.9 13.48 31, 42, 48 (Avg:45)
225 Sam Long Apache Arrow 5 6:09:00 13.1, 12.9 13.01 36, 38, 42 (Avg:40)
228 Ben Hoey Shardell Indian Pride 6 6:10:00 13.1, 12.7 12.97 30, 46, 51 (Avg:48)